Vingaren — OZ2131 — position and weather

sailwx.info

Track history (hours):
 
Tides and Currents Weather Stations Pressure Air Temp Water Temp Dewpoint Dewpoint Depression Visibility Wind Speed Wind Dir Waves Ship Positions

Vingaren

Last reported at 2016-Dec-09 21:24 UTC. Time now 2016-Dec-10 07:06 UTC.
Position N 54°57' E 019°14'.

Length 89 m; draft 6.2 m.

Type: Cargo ship. MMSI: 231844000.

Date/timePositionNaut miles runAvg speedWind from/ knotsBaromVisibWave heightAir tempDewpointWater temp
2016-Dec-09 21:24N 54°57' E 019°14'7 8.8
2016-Dec-09 20:33N 54°51' E 019°07'9 8.6
2016-Dec-09 19:33N 54°43' E 019°01'9 8.7
2016-Dec-09 18:33N 54°35' E 018°54'9 8.5
2016-Dec-09 17:33N 54°29' E 018°44'6 5.5
2016-Dec-09 16:33N 54°24' E 018°40'0 0.4
2016-Dec-09 15:33N 54°23' E 018°40'0 0.0
2016-Dec-09 14:33N 54°23' E 018°40'0 0.0
2016-Dec-09 13:33N 54°23' E 018°40'0 0.0
2016-Dec-09 12:33N 54°23' E 018°40'0 0.0
2016-Dec-09 11:33N 54°23' E 018°40'0 0.0
2016-Dec-09 10:33N 54°23' E 018°40'0 0.0
2016-Dec-09 09:30N 54°23' E 018°40'0 0.0
2016-Dec-09 08:33N 54°23' E 018°40'0 0.0
2016-Dec-09 07:33N 54°23' E 018°40'0 0.0
2016-Dec-09 06:33N 54°23' E 018°40'0 0.0
2016-Dec-09 05:33N 54°23' E 018°40'0 0.0
2016-Dec-09 04:33N 54°23' E 018°40'0 0.0
2016-Dec-09 03:33N 54°23' E 018°40'0 0.0
2016-Dec-09 02:33N 54°23' E 018°40'0 0.0
2016-Dec-09 01:33N 54°23' E 018°40'0 0.0
2016-Dec-09 00:33N 54°23' E 018°40'0 0.0
2016-Dec-08 23:33N 54°23' E 018°40'0 0.0
2016-Dec-08 22:33N 54°23' E 018°40'0 0.0
2016-Dec-08 21:33N 54°23' E 018°40'0 0.0
2016-Dec-08 20:33N 54°23' E 018°40'0 0.0
2016-Dec-08 19:33N 54°23' E 018°40'0 0.0
2016-Dec-08 18:33N 54°23' E 018°40'0 0.0
2016-Dec-08 17:29N 54°23' E 018°40'0 0.0
2016-Dec-08 16:32N 54°23' E 018°40'0 0.0
2016-Dec-08 15:32N 54°23' E 018°40'0 0.0
2016-Dec-08 14:32N 54°23' E 018°40'0 0.0
2016-Dec-08 13:32N 54°23' E 018°40'0 0.0
2016-Dec-08 12:32N 54°23' E 018°40'0 0.0
2016-Dec-08 11:32N 54°23' E 018°40'0 0.0
2016-Dec-08 10:32N 54°23' E 018°40'0 0.0
2016-Dec-08 09:32N 54°23' E 018°40'0 0.0
2016-Dec-08 08:32N 54°23' E 018°40'0 0.0
2016-Dec-08 07:32N 54°23' E 018°40'0 0.0
2016-Dec-08 06:32N 54°23' E 018°40'0 0.0
2016-Dec-08 05:32N 54°23' E 018°40'0 0.0
2016-Dec-08 04:32N 54°23' E 018°40'0 0.0
2016-Dec-08 03:32N 54°23' E 018°40'0 0.0
2016-Dec-08 02:32N 54°23' E 018°40'0 0.0
2016-Dec-08 01:32N 54°23' E 018°40'0 0.0
2016-Dec-08 00:32N 54°23' E 018°40'0 0.0
2016-Dec-07 23:32N 54°23' E 018°40'0 0.0
2016-Dec-07 21:32N 54°23' E 018°40'0 0.0
2016-Dec-07 20:32N 54°23' E 018°40'0 0.0
2016-Dec-07 19:32N 54°23' E 018°40'0 0.0
2016-Dec-07 18:32N 54°23' E 018°40'0 0.0
2016-Dec-07 17:32N 54°23' E 018°40'0 0.0
2016-Dec-07 16:32N 54°23' E 018°40'0 0.0
2016-Dec-07 15:32N 54°23' E 018°40'0 0.0
2016-Dec-07 14:32N 54°23' E 018°40'0 0.0
2016-Dec-07 13:32N 54°23' E 018°40'0 0.0
2016-Dec-07 12:32N 54°23' E 018°40'0 0.0
2016-Dec-07 11:32N 54°23' E 018°40'0 0.0
2016-Dec-07 10:29N 54°23' E 018°40'0 0.0
2016-Dec-07 09:32N 54°23' E 018°40'0 0.0
2016-Dec-07 08:31N 54°23' E 018°40'0 0.0
2016-Dec-07 07:31N 54°23' E 018°40'0 0.0
2016-Dec-07 06:31N 54°23' E 018°40'0 0.0
2016-Dec-07 05:31N 54°23' E 018°40'0 0.5
2016-Dec-07 04:33N 54°24' E 018°40'7 7.3
2016-Dec-07 03:34N 54°30' E 018°45'10 9.9
2016-Dec-07 02:33N 54°38' E 018°55'10 9.6
2016-Dec-07 01:33N 54°48' E 018°54'1111.3
2016-Dec-07 00:34N 54°55' E 018°39'1010.4
2016-Dec-06 23:33N 54°55' E 018°21'1110.8
2016-Dec-06 22:34N 54°54' E 018°02'145 9.6
2016-Dec-06 07:28N 53°48' E 014°22'910.2
2016-Dec-06 06:33N 53°40' E 014°31'9 9.5
2016-Dec-06 05:34N 53°32' E 014°38'7 7.3
2016-Dec-06 04:34N 53°24' E 014°37'0 0.0
2016-Dec-06 03:32N 53°24' E 014°37'0 0.0
2016-Dec-06 02:32N 53°24' E 014°37'0 0.0
2016-Dec-06 01:32N 53°24' E 014°37'0 0.0
2016-Dec-06 00:32N 53°24' E 014°37'0 0.0
2016-Dec-05 23:32N 53°24' E 014°37'0 0.0
2016-Dec-05 22:32N 53°24' E 014°37'0 0.0
2016-Dec-05 21:32N 53°24' E 014°37'0 0.0
2016-Dec-05 20:32N 53°24' E 014°37'0 0.0
2016-Dec-05 19:32N 53°24' E 014°37'0 0.0
2016-Dec-05 18:32N 53°24' E 014°37'0 0.0
2016-Dec-05 17:29N 53°24' E 014°37'0 0.0
2016-Dec-05 16:28N 53°24' E 014°37'0 0.0
2016-Dec-05 15:31N 53°24' E 014°37'0 0.0
2016-Dec-05 14:31N 53°24' E 014°37'0 0.0
2016-Dec-05 13:31N 53°24' E 014°37'0 0.0
2016-Dec-05 12:31N 53°24' E 014°37'0 0.0
2016-Dec-05 11:31N 53°24' E 014°37'0 0.0
2016-Dec-05 10:31N 53°24' E 014°37'0 0.0
2016-Dec-05 09:31N 53°24' E 014°37'0 0.0
2016-Dec-05 08:31N 53°24' E 014°37'0 0.0
2016-Dec-05 07:31N 53°24' E 014°37'0 0.0
2016-Dec-05 06:31N 53°24' E 014°37'0 0.0
2016-Dec-05 05:31N 53°24' E 014°37'0 0.0
2016-Dec-05 04:31N 53°24' E 014°37'0 0.0
2016-Dec-05 03:31N 53°24' E 014°37'0 0.0
2016-Dec-05 02:31N 53°24' E 014°37'4 4.1
2016-Dec-05 01:33N 53°28' E 014°36'8 7.9
2016-Dec-05 00:33N 53°36' E 014°35'9 9.3
2016-Dec-04 23:33N 53°44' E 014°26'77 8.1
2016-Dec-04 14:03N 54°53' E 015°25'5 9.5
2016-Dec-04 13:30N 54°58' E 015°29'9 9.8
2016-Dec-04 12:33N 55°06' E 015°37'20 9.5
2016-Dec-04 10:27N 55°23' E 015°54'237 9.1
2016-Dec-03 08:33N 59°14' E 017°36'6 6.0
2016-Dec-03 07:33N 59°19' E 017°32'2 2.1
2016-Dec-03 06:33N 59°20' E 017°28'0 0.0
2016-Dec-03 05:33N 59°20' E 017°28'0 0.0
2016-Dec-03 04:33N 59°20' E 017°28'0 0.0
2016-Dec-03 03:33N 59°20' E 017°28'0 0.0
2016-Dec-03 02:33N 59°20' E 017°28'0 0.0
2016-Dec-03 01:33N 59°20' E 017°28'5 5.0
2016-Dec-03 00:33N 59°25' E 017°25'9 8.8
2016-Dec-02 23:33N 59°31' E 017°12'7 6.6
2016-Dec-02 22:33N 59°31' E 016°59'7 5.5
2016-Dec-02 21:20N 59°31' E 016°46'  
2016-Nov-30 02:31N 59°31' E 016°41'9 7.9
2016-Nov-30 01:26N 59°30' E 016°57'5 5.4
2016-Nov-30 00:33N 59°32' E 017°06'9 8.7
2016-Nov-29 23:33N 59°26' E 017°20'7 7.2
2016-Nov-29 22:31N 59°20' E 017°28'0 0.0
2016-Nov-29 21:33N 59°20' E 017°28'  
Track history (hours):
 
Tides and Currents Weather Stations Pressure Air Temp Water Temp Dewpoint Dewpoint Depression Visibility Wind Speed Wind Dir Waves Ship Positions

Vingaren

Last reported at 2016-Dec-09 21:24 UTC. Time now 2016-Dec-10 07:06 UTC.
Position N 54°57' E 019°14'.

Length 89 m; draft 6.2 m.

Type: Cargo ship. MMSI: 231844000.

Date/timePositionNaut miles runAvg speedWind from/ knotsBaromVisibWave heightAir tempDewpointWater temp
2016-Dec-09 21:24N 54°57' E 019°14'7 8.8
2016-Dec-09 20:33N 54°51' E 019°07'9 8.6
2016-Dec-09 19:33N 54°43' E 019°01'9 8.7
2016-Dec-09 18:33N 54°35' E 018°54'9 8.5
2016-Dec-09 17:33N 54°29' E 018°44'6 5.5
2016-Dec-09 16:33N 54°24' E 018°40'0 0.4
2016-Dec-09 15:33N 54°23' E 018°40'0 0.0
2016-Dec-09 14:33N 54°23' E 018°40'0 0.0
2016-Dec-09 13:33N 54°23' E 018°40'0 0.0
2016-Dec-09 12:33N 54°23' E 018°40'0 0.0
2016-Dec-09 11:33N 54°23' E 018°40'0 0.0
2016-Dec-09 10:33N 54°23' E 018°40'0 0.0
2016-Dec-09 09:30N 54°23' E 018°40'0 0.0
2016-Dec-09 08:33N 54°23' E 018°40'0 0.0
2016-Dec-09 07:33N 54°23' E 018°40'0 0.0
2016-Dec-09 06:33N 54°23' E 018°40'0 0.0
2016-Dec-09 05:33N 54°23' E 018°40'0 0.0
2016-Dec-09 04:33N 54°23' E 018°40'0 0.0
2016-Dec-09 03:33N 54°23' E 018°40'0 0.0
2016-Dec-09 02:33N 54°23' E 018°40'0 0.0
2016-Dec-09 01:33N 54°23' E 018°40'0 0.0
2016-Dec-09 00:33N 54°23' E 018°40'0 0.0
2016-Dec-08 23:33N 54°23' E 018°40'0 0.0
2016-Dec-08 22:33N 54°23' E 018°40'0 0.0
2016-Dec-08 21:33N 54°23' E 018°40'0 0.0
2016-Dec-08 20:33N 54°23' E 018°40'0 0.0
2016-Dec-08 19:33N 54°23' E 018°40'0 0.0
2016-Dec-08 18:33N 54°23' E 018°40'0 0.0
2016-Dec-08 17:29N 54°23' E 018°40'0 0.0
2016-Dec-08 16:32N 54°23' E 018°40'0 0.0
2016-Dec-08 15:32N 54°23' E 018°40'0 0.0
2016-Dec-08 14:32N 54°23' E 018°40'0 0.0
2016-Dec-08 13:32N 54°23' E 018°40'0 0.0
2016-Dec-08 12:32N 54°23' E 018°40'0 0.0
2016-Dec-08 11:32N 54°23' E 018°40'0 0.0
2016-Dec-08 10:32N 54°23' E 018°40'0 0.0
2016-Dec-08 09:32N 54°23' E 018°40'0 0.0
2016-Dec-08 08:32N 54°23' E 018°40'0 0.0
2016-Dec-08 07:32N 54°23' E 018°40'0 0.0
2016-Dec-08 06:32N 54°23' E 018°40'0 0.0
2016-Dec-08 05:32N 54°23' E 018°40'0 0.0
2016-Dec-08 04:32N 54°23' E 018°40'0 0.0
2016-Dec-08 03:32N 54°23' E 018°40'0 0.0
2016-Dec-08 02:32N 54°23' E 018°40'0 0.0
2016-Dec-08 01:32N 54°23' E 018°40'0 0.0
2016-Dec-08 00:32N 54°23' E 018°40'0 0.0
2016-Dec-07 23:32N 54°23' E 018°40'0 0.0
2016-Dec-07 21:32N 54°23' E 018°40'0 0.0
2016-Dec-07 20:32N 54°23' E 018°40'0 0.0
2016-Dec-07 19:32N 54°23' E 018°40'0 0.0
2016-Dec-07 18:32N 54°23' E 018°40'0 0.0
2016-Dec-07 17:32N 54°23' E 018°40'0 0.0
2016-Dec-07 16:32N 54°23' E 018°40'0 0.0
2016-Dec-07 15:32N 54°23' E 018°40'0 0.0
2016-Dec-07 14:32N 54°23' E 018°40'0 0.0
2016-Dec-07 13:32N 54°23' E 018°40'0 0.0
2016-Dec-07 12:32N 54°23' E 018°40'0 0.0
2016-Dec-07 11:32N 54°23' E 018°40'0 0.0
2016-Dec-07 10:29N 54°23' E 018°40'0 0.0
2016-Dec-07 09:32N 54°23' E 018°40'0 0.0
2016-Dec-07 08:31N 54°23' E 018°40'0 0.0
2016-Dec-07 07:31N 54°23' E 018°40'0 0.0
2016-Dec-07 06:31N 54°23' E 018°40'0 0.0
2016-Dec-07 05:31N 54°23' E 018°40'0 0.5
2016-Dec-07 04:33N 54°24' E 018°40'7 7.3
2016-Dec-07 03:34N 54°30' E 018°45'10 9.9
2016-Dec-07 02:33N 54°38' E 018°55'10 9.6
2016-Dec-07 01:33N 54°48' E 018°54'1111.3
2016-Dec-07 00:34N 54°55' E 018°39'1010.4
2016-Dec-06 23:33N 54°55' E 018°21'1110.8
2016-Dec-06 22:34N 54°54' E 018°02'145 9.6
2016-Dec-06 07:28N 53°48' E 014°22'910.2
2016-Dec-06 06:33N 53°40' E 014°31'9 9.5
2016-Dec-06 05:34N 53°32' E 014°38'7 7.3
2016-Dec-06 04:34N 53°24' E 014°37'0 0.0
2016-Dec-06 03:32N 53°24' E 014°37'0 0.0
2016-Dec-06 02:32N 53°24' E 014°37'0 0.0
2016-Dec-06 01:32N 53°24' E 014°37'0 0.0
2016-Dec-06 00:32N 53°24' E 014°37'0 0.0
2016-Dec-05 23:32N 53°24' E 014°37'0 0.0
2016-Dec-05 22:32N 53°24' E 014°37'0 0.0
2016-Dec-05 21:32N 53°24' E 014°37'0 0.0
2016-Dec-05 20:32N 53°24' E 014°37'0 0.0
2016-Dec-05 19:32N 53°24' E 014°37'0 0.0
2016-Dec-05 18:32N 53°24' E 014°37'0 0.0
2016-Dec-05 17:29N 53°24' E 014°37'0 0.0
2016-Dec-05 16:28N 53°24' E 014°37'0 0.0
2016-Dec-05 15:31N 53°24' E 014°37'0 0.0
2016-Dec-05 14:31N 53°24' E 014°37'0 0.0
2016-Dec-05 13:31N 53°24' E 014°37'0 0.0
2016-Dec-05 12:31N 53°24' E 014°37'0 0.0
2016-Dec-05 11:31N 53°24' E 014°37'0 0.0
2016-Dec-05 10:31N 53°24' E 014°37'0 0.0
2016-Dec-05 09:31N 53°24' E 014°37'0 0.0
2016-Dec-05 08:31N 53°24' E 014°37'0 0.0
2016-Dec-05 07:31N 53°24' E 014°37'0 0.0
2016-Dec-05 06:31N 53°24' E 014°37'0 0.0
2016-Dec-05 05:31N 53°24' E 014°37'0 0.0
2016-Dec-05 04:31N 53°24' E 014°37'0 0.0
2016-Dec-05 03:31N 53°24' E 014°37'0 0.0
2016-Dec-05 02:31N 53°24' E 014°37'4 4.1
2016-Dec-05 01:33N 53°28' E 014°36'8 7.9
2016-Dec-05 00:33N 53°36' E 014°35'9 9.3
2016-Dec-04 23:33N 53°44' E 014°26'77 8.1
2016-Dec-04 14:03N 54°53' E 015°25'5 9.5
2016-Dec-04 13:30N 54°58' E 015°29'9 9.8
2016-Dec-04 12:33N 55°06' E 015°37'20 9.5
2016-Dec-04 10:27N 55°23' E 015°54'237 9.1
2016-Dec-03 08:33N 59°14' E 017°36'6 6.0
2016-Dec-03 07:33N 59°19' E 017°32'2 2.1
2016-Dec-03 06:33N 59°20' E 017°28'0 0.0
2016-Dec-03 05:33N 59°20' E 017°28'0 0.0
2016-Dec-03 04:33N 59°20' E 017°28'0 0.0
2016-Dec-03 03:33N 59°20' E 017°28'0 0.0
2016-Dec-03 02:33N 59°20' E 017°28'0 0.0
2016-Dec-03 01:33N 59°20' E 017°28'5 5.0
2016-Dec-03 00:33N 59°25' E 017°25'9 8.8
2016-Dec-02 23:33N 59°31' E 017°12'7 6.6
2016-Dec-02 22:33N 59°31' E 016°59'7 5.5
2016-Dec-02 21:20N 59°31' E 016°46'  
2016-Nov-30 02:31N 59°31' E 016°41'9 7.9
2016-Nov-30 01:26N 59°30' E 016°57'5 5.4
2016-Nov-30 00:33N 59°32' E 017°06'9 8.7
2016-Nov-29 23:33N 59°26' E 017°20'7 7.2
2016-Nov-29 22:31N 59°20' E 017°28'0 0.0
2016-Nov-29 21:33N 59°20' E 017°28'  

Dump ship's entire track history